createdAt,value
2018-03-03T09:25:12.708Z,291.10
2018-03-03T09:26:13.388Z,95.10
2018-03-03T09:27:14.093Z,89.10
2018-03-03T09:28:14.769Z,88.90
2018-03-03T09:29:15.436Z,108.60
2018-03-03T09:30:16.084Z,1999.90
2018-03-03T09:31:16.720Z,1999.90
2018-03-03T09:32:17.354Z,1999.90
2018-03-03T09:33:18.037Z,1999.90
2018-03-03T09:34:19.312Z,1999.90
2018-03-03T09:35:19.950Z,1999.90
2018-03-03T09:36:20.621Z,1999.90
2018-03-03T09:37:21.249Z,1999.90
2018-03-03T09:38:21.872Z,1999.90
2018-03-03T09:40:22.791Z,1999.90
2018-03-03T09:42:23.726Z,110.60
2018-03-03T09:43:24.362Z,92.60
2018-03-03T09:44:25.028Z,82.20
2018-03-03T09:45:25.962Z,83.20
2018-03-03T09:46:26.596Z,76.50
2018-03-03T09:47:27.373Z,75.90
2018-03-03T09:48:27.998Z,74.10
2018-03-03T09:49:28.624Z,70.70
2018-03-03T09:50:29.316Z,72.30
2018-03-03T09:51:30.008Z,72.00
2018-03-03T09:53:30.939Z,71.10
2018-03-03T09:54:31.595Z,72.60
2018-03-03T09:56:32.499Z,69.90
2018-03-03T09:57:33.153Z,70.40
2018-03-03T09:58:33.790Z,71.00
2018-03-03T09:59:34.426Z,69.70
2018-03-03T10:00:35.055Z,73.30
2018-03-03T10:01:35.707Z,68.60
2018-03-03T10:02:36.374Z,70.00
2018-03-03T10:03:36.988Z,68.80
2018-03-03T10:04:37.657Z,67.80
2018-03-03T10:05:38.316Z,68.10
2018-03-03T10:06:38.948Z,67.90
2018-03-03T10:07:39.585Z,64.80
2018-03-03T10:08:40.241Z,67.30
2018-03-03T10:09:40.873Z,68.90
2018-03-03T10:11:41.776Z,63.50
2018-03-03T10:12:42.407Z,64.00
2018-03-03T10:13:43.056Z,62.80
2018-03-03T10:15:43.991Z,63.30
2018-03-03T10:16:44.648Z,62.20
2018-03-03T10:18:45.538Z,63.40
2018-03-03T10:19:46.150Z,62.60
2018-03-03T10:20:47.380Z,62.00
2018-03-03T10:21:48.011Z,63.30
2018-03-03T10:22:48.626Z,64.10
2018-03-03T10:23:49.249Z,63.00
2018-03-03T10:25:50.239Z,63.70
2018-03-03T10:26:50.877Z,63.50
2018-03-03T10:27:51.541Z,63.30
2018-03-03T10:28:52.237Z,63.30
2018-03-03T10:29:52.879Z,63.10
2018-03-03T10:30:53.526Z,59.00
2018-03-03T10:31:54.144Z,57.90
2018-03-03T10:32:54.819Z,58.60
2018-03-03T10:33:55.445Z,59.50
2018-03-03T10:34:56.090Z,60.00
2018-03-03T10:35:56.748Z,58.30
2018-03-03T10:36:57.411Z,57.70
2018-03-03T10:37:58.122Z,58.00
2018-03-03T10:39:59.016Z,58.60
2018-03-03T10:40:59.644Z,58.70
2018-03-03T10:42:00.291Z,57.90
2018-03-03T10:43:00.949Z,60.20
2018-03-03T10:44:01.613Z,54.80
2018-03-03T10:45:02.241Z,54.90
2018-03-03T10:46:02.871Z,54.60
2018-03-03T10:47:03.527Z,55.70
2018-03-03T10:48:04.134Z,54.00
2018-03-03T10:49:04.785Z,55.50
2018-03-03T10:50:05.451Z,55.00
2018-03-03T10:51:06.101Z,56.30
2018-03-03T10:52:06.735Z,55.80
2018-03-03T10:53:07.358Z,53.20
2018-03-03T10:54:08.020Z,54.50
2018-03-03T10:55:08.652Z,57.30
2018-03-03T10:56:09.332Z,56.30
2018-03-03T10:57:09.954Z,51.90
2018-03-03T10:58:10.594Z,52.40
2018-03-03T10:59:11.944Z,55.10
2018-03-03T11:00:12.589Z,52.60
2018-03-03T11:01:13.218Z,51.30
2018-03-03T11:02:13.980Z,50.10
2018-03-03T11:03:14.682Z,49.40
2018-03-03T11:04:15.306Z,49.00
2018-03-03T11:05:15.927Z,51.80
2018-03-03T11:06:16.567Z,50.50
2018-03-03T11:07:17.235Z,50.30
2018-03-03T11:08:18.497Z,53.90
2018-03-03T11:09:19.157Z,52.80
2018-03-03T11:10:19.819Z,47.10
2018-03-03T11:11:20.491Z,50.00
2018-03-03T11:12:21.130Z,50.10
2018-03-03T11:13:21.802Z,55.30
2018-03-03T11:14:22.455Z,54.70
2018-03-03T11:15:23.095Z,54.10
2018-03-03T11:16:23.764Z,53.00
2018-03-03T11:18:24.703Z,52.70
2018-03-03T11:19:25.346Z,48.90
2018-03-03T11:20:26.040Z,46.80
2018-03-03T11:21:26.695Z,46.40
2018-03-03T11:22:27.428Z,48.50
2018-03-03T11:24:28.380Z,47.70
2018-03-03T11:26:29.293Z,47.80
2018-03-03T11:27:29.973Z,50.40
2018-03-03T11:28:30.607Z,48.30
2018-03-03T11:29:31.305Z,49.30
2018-03-03T11:30:31.972Z,48.00
2018-03-03T11:31:32.606Z,45.40
2018-03-03T11:32:33.290Z,46.20
2018-03-03T11:34:34.195Z,46.60
2018-03-03T11:35:34.824Z,47.10
2018-03-03T11:36:35.455Z,44.30
2018-03-03T11:37:37.131Z,46.50
2018-03-03T11:39:38.030Z,46.50
2018-03-03T11:40:38.684Z,48.50
2018-03-03T11:41:39.418Z,47.80
2018-03-03T11:42:40.052Z,43.00
2018-03-03T11:43:40.685Z,47.30
2018-03-03T11:45:41.581Z,42.20
2018-03-03T11:46:42.305Z,33.10
2018-03-03T11:47:42.953Z,25.70
2018-03-03T11:48:43.585Z,28.10
2018-03-03T11:49:44.905Z,25.80
2018-03-03T11:50:45.545Z,24.80
2018-03-03T11:51:46.202Z,25.70
2018-03-03T11:52:46.858Z,24.50
2018-03-03T11:53:47.517Z,24.80
2018-03-03T11:54:48.120Z,26.10
2018-03-03T11:55:48.742Z,23.40
2018-03-03T11:56:49.373Z,24.20
2018-03-03T11:57:50.001Z,23.80
2018-03-03T11:58:50.619Z,24.30
2018-03-03T11:59:51.256Z,23.70
2018-03-03T12:00:51.876Z,24.00
2018-03-03T12:01:52.505Z,23.70
2018-03-03T12:02:53.127Z,21.60
2018-03-03T12:03:54.421Z,23.90
2018-03-03T12:04:55.116Z,22.10
2018-03-03T12:05:55.782Z,25.30
2018-03-03T12:06:56.598Z,23.30
2018-03-03T12:07:57.239Z,27.20
2018-03-03T12:08:57.892Z,24.50
2018-03-03T12:09:58.608Z,24.60
2018-03-03T12:10:59.265Z,23.40
2018-03-03T12:11:59.978Z,24.80
2018-03-03T12:13:00.683Z,23.90
2018-03-03T12:14:01.302Z,25.40
2018-03-03T12:15:01.926Z,25.60
2018-03-03T12:16:02.564Z,27.00
2018-03-03T12:17:03.217Z,27.40
2018-03-03T12:19:04.141Z,25.20
2018-03-03T12:20:04.764Z,25.10
2018-03-03T12:21:05.403Z,22.40
2018-03-03T12:22:06.045Z,22.00
2018-03-03T12:23:06.666Z,17.90
2018-03-03T12:24:07.492Z,21.50
2018-03-03T12:25:08.117Z,19.20
2018-03-03T12:26:08.730Z,24.00
2018-03-03T12:27:09.417Z,25.90
2018-03-03T12:28:10.052Z,23.30
2018-03-03T12:29:10.704Z,27.10
2018-03-03T12:30:11.338Z,27.80
2018-03-03T12:31:11.989Z,24.70
2018-03-03T12:33:12.912Z,28.40
2018-03-03T12:34:13.533Z,22.90
2018-03-03T12:35:14.180Z,22.90
2018-03-03T12:36:14.799Z,22.70
2018-03-03T12:37:15.443Z,18.90
2018-03-03T12:38:16.067Z,17.10
2018-03-03T12:39:16.707Z,13.40
2018-03-03T12:40:17.339Z,13.00
2018-03-03T12:41:18.020Z,13.30
2018-03-03T12:42:19.354Z,12.20
2018-03-03T12:43:20.019Z,15.00
2018-03-03T12:44:20.637Z,14.90
2018-03-03T12:45:21.314Z,15.70
2018-03-03T12:46:21.942Z,16.30
2018-03-03T12:47:22.579Z,16.20
2018-03-03T12:48:23.211Z,15.70
2018-03-03T12:49:23.857Z,18.00
2018-03-03T12:50:24.467Z,16.90
2018-03-03T12:51:25.086Z,15.70
2018-03-03T12:52:25.747Z,16.50
2018-03-03T12:53:26.385Z,16.40
2018-03-03T12:54:27.031Z,20.10
2018-03-03T12:55:27.685Z,16.90
2018-03-03T12:56:28.321Z,17.30
2018-03-03T12:57:28.971Z,21.20
2018-03-03T12:58:29.680Z,21.40
2018-03-03T12:59:30.302Z,18.00
2018-03-03T13:00:30.939Z,16.10
2018-03-03T13:01:31.577Z,18.80
2018-03-03T13:02:32.288Z,16.60
2018-03-03T13:03:32.935Z,17.50
2018-03-03T13:04:33.716Z,16.10
2018-03-03T13:05:34.809Z,18.10
2018-03-03T13:06:35.429Z,14.80
2018-03-03T13:07:36.084Z,17.00
2018-03-03T13:08:36.721Z,16.70
2018-03-03T13:09:37.358Z,20.00
2018-03-03T13:10:37.999Z,20.10
2018-03-03T13:11:38.644Z,15.90
2018-03-03T13:12:39.335Z,16.30
2018-03-03T13:13:39.990Z,16.30
2018-03-03T13:14:40.610Z,14.20
2018-03-03T13:15:41.253Z,13.40
2018-03-03T13:16:41.914Z,15.40
2018-03-03T13:17:42.549Z,16.60
2018-03-03T13:19:43.450Z,15.20
2018-03-03T13:20:44.086Z,14.40
2018-03-03T13:21:44.828Z,13.90
2018-03-03T13:22:45.457Z,14.20
2018-03-03T13:23:46.459Z,12.40
2018-03-03T13:24:47.084Z,15.90
2018-03-03T13:25:47.727Z,15.60
2018-03-03T13:26:48.369Z,15.00
2018-03-03T13:27:49.014Z,14.80
2018-03-03T13:28:49.646Z,14.40
2018-03-03T13:29:50.291Z,15.90
2018-03-03T13:30:50.911Z,18.10
2018-03-03T13:31:51.537Z,17.00
2018-03-03T13:32:52.201Z,16.40
2018-03-03T13:33:52.831Z,15.50
2018-03-03T13:34:53.447Z,15.50
2018-03-03T13:35:54.080Z,14.90
2018-03-03T13:36:54.721Z,15.60
2018-03-03T13:37:55.963Z,15.90
2018-03-03T13:38:56.619Z,15.20
2018-03-03T13:39:57.238Z,16.90
2018-03-03T13:40:57.862Z,17.70
2018-03-03T13:41:58.500Z,15.80
2018-03-03T13:42:59.172Z,18.50
2018-03-03T13:43:59.807Z,15.50
2018-03-03T13:45:00.439Z,15.20
2018-03-03T13:46:01.068Z,15.10
2018-03-03T13:47:01.692Z,20.10
2018-03-03T13:48:02.387Z,16.60
2018-03-03T13:49:03.044Z,18.80
2018-03-03T13:50:03.691Z,17.30
2018-03-03T13:51:04.322Z,16.00
2018-03-03T13:52:04.962Z,15.40
2018-03-03T13:53:05.598Z,16.80
2018-03-03T13:54:06.238Z,14.90
2018-03-03T13:55:07.015Z,15.10
2018-03-03T13:56:07.651Z,15.60
2018-03-03T13:57:08.288Z,17.10
2018-03-03T13:58:08.947Z,19.50
2018-03-03T14:00:09.837Z,14.90
2018-03-03T14:01:10.582Z,18.40
2018-03-03T14:02:11.206Z,12.00
2018-03-03T14:03:11.874Z,15.60
2018-03-03T14:04:12.531Z,14.80
2018-03-03T14:05:13.870Z,14.80
2018-03-03T14:06:14.548Z,15.50
2018-03-03T14:07:15.160Z,16.70
2018-03-03T14:08:15.790Z,18.50
2018-03-03T14:09:16.407Z,16.20
2018-03-03T14:10:17.046Z,13.80
2018-03-03T14:11:17.694Z,16.40
2018-03-03T14:12:18.374Z,14.20
2018-03-03T14:13:19.046Z,16.10
2018-03-03T14:14:19.677Z,15.70
2018-03-03T14:15:20.302Z,17.80
2018-03-03T14:16:20.912Z,16.10
2018-03-03T14:17:21.522Z,14.40
2018-03-03T14:18:22.162Z,17.40
2018-03-03T14:19:22.785Z,13.10
2018-03-03T14:20:23.412Z,14.00
2018-03-03T14:21:24.121Z,15.80
2018-03-03T14:22:24.743Z,13.50
2018-03-03T14:23:25.496Z,14.90
2018-03-03T14:24:26.115Z,13.70
2018-03-03T14:25:26.796Z,13.70
2018-03-03T14:26:27.537Z,14.60
2018-03-03T14:27:28.214Z,14.40
2018-03-03T14:28:28.983Z,15.70
2018-03-03T14:30:29.878Z,13.40
2018-03-03T14:31:30.522Z,14.60
2018-03-03T14:32:31.210Z,14.20
2018-03-03T14:33:31.850Z,11.80
2018-03-03T14:34:32.512Z,13.10
2018-03-03T14:35:33.886Z,14.70
2018-03-03T14:36:34.530Z,16.20
2018-03-03T14:37:35.208Z,13.10
2018-03-03T14:38:35.863Z,12.40
2018-03-03T14:39:36.549Z,14.80
2018-03-03T14:40:37.190Z,15.00
2018-03-03T14:41:37.822Z,13.30
2018-03-03T14:42:38.443Z,11.70
2018-03-03T14:43:39.103Z,14.00
2018-03-03T14:44:40.525Z,13.40
2018-03-03T14:46:41.432Z,13.00
2018-03-03T14:47:42.064Z,13.20
2018-03-03T14:48:42.705Z,12.50
2018-03-03T14:49:43.346Z,16.10
2018-03-03T14:50:44.510Z,15.00
2018-03-03T14:51:45.190Z,12.50
2018-03-03T14:52:45.834Z,11.90
2018-03-03T14:53:46.479Z,11.30
2018-03-03T14:54:47.186Z,16.10
2018-03-03T14:55:47.918Z,14.10
2018-03-03T14:56:48.661Z,10.80
2018-03-03T14:57:49.384Z,14.60
2018-03-03T14:58:50.006Z,13.10
2018-03-03T14:59:50.805Z,14.70
2018-03-03T15:00:51.572Z,12.60
2018-03-03T15:01:52.225Z,16.30
2018-03-03T15:02:52.915Z,14.20
2018-03-03T15:03:53.539Z,13.40
2018-03-03T15:04:54.173Z,14.00
2018-03-03T15:05:54.812Z,13.90
2018-03-03T15:07:55.768Z,11.60
2018-03-03T15:08:56.415Z,11.60
2018-03-03T15:09:57.042Z,11.90
2018-03-03T15:10:57.672Z,13.10
2018-03-03T15:11:58.312Z,13.10
2018-03-03T15:12:58.958Z,13.30
2018-03-03T15:13:59.664Z,15.60
2018-03-03T15:15:00.296Z,14.60
2018-03-03T15:16:00.932Z,13.00
2018-03-03T15:17:01.589Z,10.80
2018-03-03T15:18:02.264Z,11.50
2018-03-03T15:19:02.956Z,10.50
2018-03-03T15:20:03.612Z,12.20
2018-03-03T15:21:04.270Z,13.00
2018-03-03T15:22:04.916Z,11.90
2018-03-03T15:23:05.555Z,11.60
2018-03-03T15:24:06.230Z,11.40
2018-03-03T15:25:08.262Z,11.00
2018-03-03T15:26:08.913Z,14.30
2018-03-03T15:27:09.592Z,11.80
2018-03-03T15:28:10.239Z,13.40
2018-03-03T15:30:11.202Z,14.40
2018-03-03T15:31:11.851Z,12.80
2018-03-03T15:32:12.533Z,15.10
2018-03-03T15:33:13.200Z,16.40
2018-03-03T15:34:13.857Z,14.30
2018-03-03T15:35:14.666Z,15.20
2018-03-03T15:36:15.330Z,13.50
2018-03-03T15:37:16.015Z,13.80
2018-03-03T15:38:16.732Z,14.70
2018-03-03T15:39:17.465Z,17.80
2018-03-03T15:40:18.078Z,13.70
2018-03-03T15:42:19.947Z,13.90
2018-03-03T15:43:20.576Z,13.00
2018-03-03T15:44:21.207Z,14.80
2018-03-03T15:46:22.133Z,14.60
2018-03-03T15:47:22.748Z,16.40
2018-03-03T15:48:23.365Z,15.70
2018-03-03T15:49:23.994Z,16.90
2018-03-03T15:50:24.651Z,13.30
2018-03-03T15:52:26.118Z,20.60
2018-03-03T15:53:26.749Z,12.60
2018-03-03T15:54:27.378Z,16.80
2018-03-03T15:55:28.066Z,15.10
2018-03-03T15:57:29.050Z,17.90
2018-03-03T15:58:29.727Z,16.40
2018-03-03T15:59:30.812Z,15.90
2018-03-03T16:00:31.512Z,14.80
2018-03-03T16:01:32.265Z,12.40
2018-03-03T16:02:32.968Z,15.80
2018-03-03T16:03:34.368Z,14.80
2018-03-03T16:04:35.029Z,14.80
2018-03-03T16:05:35.668Z,15.50
2018-03-03T16:06:36.318Z,16.70
2018-03-03T16:07:36.949Z,17.50
2018-03-03T16:08:38.167Z,15.40
2018-03-03T16:09:38.794Z,15.10
2018-03-03T16:10:39.406Z,14.60
2018-03-03T16:11:40.025Z,15.40
2018-03-03T16:12:40.646Z,14.30
2018-03-03T16:13:41.294Z,16.20
2018-03-03T16:14:41.954Z,14.70
2018-03-03T16:15:42.574Z,14.80
2018-03-03T16:16:43.216Z,12.90
2018-03-03T16:17:43.869Z,15.90
2018-03-03T16:18:44.493Z,11.80
2018-03-03T16:19:45.201Z,15.20
2018-03-03T16:20:45.831Z,15.10
2018-03-03T16:21:46.467Z,11.70
2018-03-03T16:22:47.152Z,11.70
2018-03-03T16:24:48.071Z,13.60
2018-03-03T16:25:48.708Z,12.50
2018-03-03T16:26:49.358Z,13.10
2018-03-03T16:27:50.298Z,10.20
2018-03-03T16:28:50.985Z,11.20
2018-03-03T16:29:51.642Z,11.40
2018-03-03T16:31:52.542Z,11.70
2018-03-03T16:32:53.179Z,14.10
2018-03-03T16:33:53.837Z,12.40
2018-03-03T16:34:55.122Z,12.40
2018-03-03T16:35:55.765Z,9.40
2018-03-03T16:36:56.414Z,14.40
2018-03-03T16:37:57.074Z,12.70
2018-03-03T16:38:57.735Z,14.00
2018-03-03T16:39:58.398Z,12.60
2018-03-03T16:40:59.811Z,14.40
2018-03-03T16:42:00.517Z,15.40
2018-03-03T16:43:01.160Z,10.80
2018-03-03T16:44:01.905Z,13.50
2018-03-03T16:45:02.715Z,15.40
2018-03-03T16:46:03.482Z,19.50
2018-03-03T16:47:04.854Z,14.90
2018-03-03T16:49:05.859Z,13.30
2018-03-03T16:50:06.505Z,16.10
2018-03-03T16:51:07.154Z,11.70
2018-03-03T16:52:07.832Z,12.70
2018-03-03T16:53:08.475Z,15.80
2018-03-03T16:54:09.129Z,17.30
2018-03-03T16:55:10.799Z,13.60
2018-03-03T16:56:11.442Z,14.00
2018-03-03T16:57:12.064Z,15.70
2018-03-03T16:58:12.770Z,15.90
2018-03-03T16:59:13.441Z,15.10
2018-03-03T17:00:14.746Z,13.00
2018-03-03T17:01:15.412Z,12.60
2018-03-03T17:02:16.049Z,16.00
2018-03-03T17:03:16.860Z,17.00
2018-03-03T17:04:17.496Z,16.40
2018-03-03T17:05:18.139Z,15.70
2018-03-03T17:06:19.790Z,14.90
2018-03-03T17:07:20.437Z,13.70
2018-03-03T17:08:21.939Z,18.80
2018-03-03T17:09:22.678Z,13.70
2018-03-03T17:10:23.372Z,14.60
2018-03-03T17:11:24.009Z,13.70
2018-03-03T17:12:24.680Z,15.80
2018-03-03T17:13:26.049Z,13.90
2018-03-03T17:15:26.996Z,13.90
2018-03-03T17:17:27.912Z,7.30
2018-03-03T17:18:28.601Z,8.90
2018-03-03T17:19:29.277Z,9.40
2018-03-03T17:20:29.931Z,10.40
2018-03-03T17:21:30.623Z,9.70
2018-03-03T17:22:31.342Z,19.60
2018-03-03T17:23:32.031Z,14.90
2018-03-03T17:25:32.949Z,10.90
2018-03-03T17:26:33.615Z,9.20
2018-03-03T17:27:34.349Z,9.90
2018-03-03T17:28:35.000Z,11.80
2018-03-03T17:29:35.661Z,10.90
2018-03-03T17:30:36.899Z,14.80
2018-03-03T17:31:37.592Z,11.30
2018-03-03T17:32:38.246Z,9.80
2018-03-03T17:33:38.886Z,13.30
2018-03-03T17:34:39.562Z,9.40
2018-03-03T17:35:40.209Z,11.40
2018-03-03T17:36:40.859Z,14.80
2018-03-03T17:37:41.478Z,13.20
2018-03-03T17:38:42.133Z,13.20
2018-03-03T17:40:43.111Z,12.40
2018-03-03T17:41:43.756Z,12.60
2018-03-03T17:42:44.386Z,11.20
2018-03-03T17:43:45.104Z,12.10
2018-03-03T17:44:45.752Z,11.60
2018-03-03T17:45:46.382Z,12.50
2018-03-03T17:46:47.016Z,11.20
2018-03-03T17:47:47.656Z,10.50
2018-03-03T17:48:48.330Z,13.80
2018-03-03T17:49:48.973Z,11.70
2018-03-03T17:50:49.905Z,13.90
2018-03-03T17:51:50.532Z,14.00
2018-03-03T17:52:51.164Z,11.60
2018-03-03T17:53:51.796Z,13.60
2018-03-03T17:54:52.458Z,11.30
2018-03-03T17:55:53.112Z,14.10
2018-03-03T17:56:54.405Z,11.00
2018-03-03T17:57:55.056Z,10.70
2018-03-03T17:58:55.769Z,10.80
2018-03-03T17:59:56.450Z,14.40
2018-03-03T18:00:57.166Z,13.10
2018-03-03T18:01:57.845Z,10.70
2018-03-03T18:02:58.511Z,12.40
2018-03-03T18:03:59.226Z,13.60
2018-03-03T18:04:59.850Z,13.00
2018-03-03T18:06:00.502Z,12.50
2018-03-03T18:07:01.142Z,12.00
2018-03-03T18:08:01.755Z,11.50
2018-03-03T18:09:03.107Z,13.30
2018-03-03T18:10:03.750Z,12.70
2018-03-03T18:11:05.310Z,15.70
2018-03-03T18:12:05.966Z,13.00
2018-03-03T18:13:06.602Z,14.30
2018-03-03T18:14:07.282Z,11.70
2018-03-03T18:15:07.921Z,14.00
2018-03-03T18:16:08.647Z,14.70
2018-03-03T18:17:09.346Z,13.60
2018-03-03T18:18:10.556Z,12.10
2018-03-03T18:19:11.202Z,12.10
2018-03-03T18:21:12.814Z,12.80
2018-03-03T18:22:13.452Z,10.00
2018-03-03T18:23:14.080Z,13.10
2018-03-03T18:24:14.725Z,12.40
2018-03-03T18:25:15.384Z,13.60
2018-03-03T18:26:16.058Z,20.00
2018-03-03T18:27:16.675Z,13.80
2018-03-03T18:28:17.298Z,25.30
2018-03-03T18:29:17.932Z,22.00
2018-03-03T18:30:19.693Z,17.30
2018-03-03T18:31:20.750Z,14.70
2018-03-03T18:32:21.424Z,14.90
2018-03-03T18:33:22.027Z,16.40
2018-03-03T18:34:22.676Z,15.20
2018-03-03T18:35:23.354Z,14.70
2018-03-03T18:36:24.317Z,16.80
2018-03-03T18:37:24.954Z,15.60
2018-03-03T18:38:25.607Z,13.90
2018-03-03T18:39:26.220Z,18.50
2018-03-03T18:40:26.920Z,17.80
2018-03-03T18:42:27.850Z,17.60
2018-03-03T18:43:28.487Z,19.70
2018-03-03T18:44:29.366Z,18.40
2018-03-03T18:45:30.045Z,16.90
2018-03-03T18:46:30.699Z,19.30
2018-03-03T18:47:31.460Z,17.80
2018-03-03T18:48:32.105Z,18.80
2018-03-03T18:49:32.761Z,17.30
2018-03-03T18:50:33.393Z,20.20
2018-03-03T18:52:34.389Z,22.50
2018-03-03T18:53:35.048Z,21.50
2018-03-03T18:54:35.690Z,21.00
2018-03-03T18:55:36.315Z,19.60
2018-03-03T18:56:36.941Z,18.50
2018-03-03T18:57:37.587Z,20.50
2018-03-03T18:58:38.197Z,18.50
2018-03-03T19:00:39.146Z,20.50
2018-03-03T19:02:40.073Z,22.10
2018-03-03T19:03:40.722Z,20.00
2018-03-03T19:05:41.649Z,24.40
2018-03-03T19:06:43.211Z,21.80
2018-03-03T19:08:44.170Z,21.80
2018-03-03T19:09:44.908Z,24.00
2018-03-03T19:10:45.576Z,21.80
2018-03-03T19:11:46.240Z,19.90
2018-03-03T19:12:46.920Z,24.40
2018-03-03T19:13:47.584Z,38.40
2018-03-03T19:14:48.466Z,30.00
2018-03-03T19:15:49.146Z,24.80
2018-03-03T19:16:49.818Z,29.50
2018-03-03T19:17:50.486Z,18.40
2018-03-03T19:18:51.150Z,16.40
2018-03-03T19:19:51.802Z,16.10
2018-03-03T19:20:52.518Z,13.30
2018-03-03T19:21:53.151Z,13.20
2018-03-03T19:22:53.800Z,12.70
2018-03-03T19:23:54.444Z,13.30
2018-03-03T19:24:55.100Z,15.20
2018-03-03T19:25:55.737Z,17.40
2018-03-03T19:26:56.432Z,14.90
2018-03-03T19:27:57.286Z,15.90
2018-03-03T19:28:58.010Z,15.50
2018-03-03T19:29:58.664Z,13.60
2018-03-03T19:30:59.327Z,16.70
2018-03-03T19:31:59.982Z,15.90
2018-03-03T19:33:00.628Z,15.30
2018-03-03T19:34:01.280Z,17.70
2018-03-03T19:35:01.953Z,16.30
2018-03-03T19:36:02.643Z,17.10
2018-03-03T19:37:03.305Z,18.30
2018-03-03T19:38:04.012Z,15.70
2018-03-03T19:39:04.672Z,15.30
2018-03-03T19:40:05.404Z,18.00
2018-03-03T19:41:06.058Z,19.40
2018-03-03T19:42:06.803Z,18.80
2018-03-03T19:43:07.460Z,15.90
2018-03-03T19:44:08.145Z,20.10
2018-03-03T19:45:08.767Z,19.00
2018-03-03T19:47:10.224Z,20.40
2018-03-03T19:48:10.948Z,20.30
2018-03-03T19:50:11.900Z,18.60
2018-03-03T19:51:12.567Z,18.10
2018-03-03T19:52:13.240Z,22.10
2018-03-03T19:53:13.878Z,20.60
2018-03-03T19:54:14.513Z,22.10
2018-03-03T19:56:15.408Z,18.60
2018-03-03T19:57:16.079Z,19.20
2018-03-03T19:58:16.711Z,20.60
2018-03-03T19:59:17.356Z,21.90
2018-03-03T20:00:18.011Z,19.50
2018-03-03T20:01:18.696Z,19.10
2018-03-03T20:02:19.542Z,22.10
2018-03-03T20:03:20.255Z,19.70
2018-03-03T20:04:20.951Z,19.40
2018-03-03T20:05:21.614Z,17.30
2018-03-03T20:07:22.510Z,20.10
2018-03-03T20:08:23.140Z,17.10
2018-03-03T20:09:23.802Z,19.80
2018-03-03T20:10:24.477Z,19.00
2018-03-03T20:11:25.140Z,27.50
2018-03-03T20:12:25.776Z,24.90
2018-03-03T20:13:26.414Z,21.70
2018-03-03T20:14:27.066Z,22.40
2018-03-03T20:15:27.802Z,22.20
2018-03-03T20:16:28.415Z,22.20
2018-03-03T20:17:29.092Z,23.20
2018-03-03T20:18:29.745Z,19.80
2018-03-03T20:20:30.697Z,21.80
2018-03-03T20:22:31.737Z,22.80
2018-03-03T20:23:32.405Z,25.90
2018-03-03T20:24:33.108Z,26.00
2018-03-03T20:25:33.766Z,21.20
2018-03-03T20:26:34.418Z,21.80
2018-03-03T20:27:35.091Z,25.50
2018-03-03T20:28:35.750Z,22.10
2018-03-03T20:29:36.387Z,24.00
2018-03-03T20:30:37.063Z,28.00
2018-03-03T20:31:37.759Z,26.40
2018-03-03T20:32:38.423Z,26.00
2018-03-03T20:33:39.105Z,24.00
2018-03-03T20:34:39.777Z,29.70
2018-03-03T20:36:40.704Z,29.70
2018-03-03T20:37:41.341Z,30.60
2018-03-03T20:38:42.130Z,31.60
2018-03-03T20:39:42.780Z,29.00
2018-03-03T20:40:43.456Z,29.00
2018-03-03T20:41:44.112Z,28.60
2018-03-03T20:42:44.797Z,29.70
2018-03-03T20:43:45.456Z,31.40
2018-03-03T20:44:46.184Z,31.60
2018-03-03T20:45:46.822Z,33.70
2018-03-03T20:46:47.457Z,28.30
2018-03-03T20:47:48.155Z,30.40
2018-03-03T20:48:48.826Z,29.60
2018-03-03T20:49:49.558Z,31.50
2018-03-03T20:50:50.253Z,26.20
2018-03-03T20:51:50.873Z,29.60
2018-03-03T20:52:52.012Z,32.70
2018-03-03T20:53:52.678Z,34.50
2018-03-03T20:54:53.338Z,32.10
2018-03-03T20:55:54.001Z,31.90
2018-03-03T20:56:54.642Z,30.40
2018-03-03T20:57:55.309Z,28.80
2018-03-03T20:58:55.969Z,29.20
2018-03-03T20:59:56.610Z,26.60
2018-03-03T21:00:57.294Z,28.50
2018-03-03T21:02:58.250Z,32.70
2018-03-03T21:03:58.926Z,30.40
2018-03-03T21:04:59.628Z,32.50
2018-03-03T21:06:00.328Z,31.70
2018-03-03T21:08:01.229Z,30.00
2018-03-03T21:09:01.978Z,28.90
2018-03-03T21:10:02.651Z,26.60
2018-03-03T21:11:03.362Z,32.30
2018-03-03T21:12:04.037Z,30.90
2018-03-03T21:13:05.350Z,26.80
2018-03-03T21:14:06.014Z,28.30
2018-03-03T21:15:06.701Z,30.80
2018-03-03T21:16:07.359Z,29.60
2018-03-03T21:17:08.051Z,28.60
2018-03-03T21:18:08.755Z,26.40
2018-03-03T21:19:09.443Z,36.30
2018-03-03T21:20:10.247Z,31.20
2018-03-03T21:21:10.894Z,34.50
2018-03-03T21:22:11.527Z,33.50
2018-03-03T21:23:12.172Z,31.90
2018-03-03T21:24:12.806Z,29.70
2018-03-03T21:25:14.460Z,32.90
2018-03-03T21:27:15.431Z,32.90
2018-03-03T21:28:16.097Z,33.70
2018-03-03T21:29:16.795Z,40.80
2018-03-03T21:30:17.480Z,34.70
2018-03-03T21:31:18.159Z,30.60
2018-03-03T21:33:19.101Z,30.60
2018-03-03T21:34:19.733Z,37.30
2018-03-03T21:35:20.417Z,30.40
2018-03-03T21:36:21.070Z,31.30
2018-03-03T21:37:21.753Z,34.60
2018-03-03T21:38:22.391Z,32.50
2018-03-03T21:39:23.100Z,27.40
2018-03-03T21:40:23.768Z,34.00
2018-03-03T21:41:24.439Z,26.90
2018-03-03T21:42:25.094Z,28.90
2018-03-03T21:43:25.764Z,31.80
2018-03-03T21:44:27.421Z,27.10
2018-03-03T21:45:28.150Z,28.60
2018-03-03T21:47:29.110Z,28.60
2018-03-03T21:48:29.840Z,39.10
2018-03-03T21:49:30.496Z,45.70
2018-03-03T21:50:31.270Z,42.60
2018-03-03T21:51:32.021Z,40.70
2018-03-03T21:52:33.303Z,41.10
2018-03-03T21:53:33.970Z,54.20
2018-03-03T21:54:34.675Z,49.80
2018-03-03T21:55:35.350Z,53.80
2018-03-03T21:56:35.988Z,43.60
2018-03-03T21:57:36.684Z,49.80
2018-03-03T21:58:37.354Z,59.30
2018-03-03T21:59:37.984Z,59.40
2018-03-03T22:00:38.626Z,69.40
2018-03-03T22:01:39.311Z,57.00
2018-03-03T22:02:39.929Z,66.90
2018-03-03T22:03:40.601Z,59.50
2018-03-03T22:04:41.240Z,61.10
2018-03-03T22:05:42.259Z,56.70
2018-03-03T22:06:42.910Z,52.60
2018-03-03T22:07:43.585Z,61.80
2018-03-03T22:08:44.297Z,65.40
2018-03-03T22:09:44.928Z,56.30
2018-03-03T22:10:45.596Z,56.10
2018-03-03T22:11:46.244Z,70.00
2018-03-03T22:12:46.878Z,58.00
2018-03-03T22:13:47.505Z,53.50
2018-03-03T22:14:48.554Z,53.10
2018-03-03T22:15:49.251Z,64.70
2018-03-03T22:16:49.920Z,79.20
2018-03-03T22:17:50.587Z,65.20
2018-03-03T22:18:51.238Z,60.20
2018-03-03T22:19:51.929Z,79.10
2018-03-03T22:20:52.584Z,83.00
2018-03-03T22:21:53.771Z,68.10
2018-03-03T22:22:54.420Z,62.30
2018-03-03T22:23:55.416Z,81.40
2018-03-03T22:24:56.057Z,69.50
2018-03-03T22:25:56.801Z,78.70
2018-03-03T22:27:57.731Z,68.10
2018-03-03T22:28:58.397Z,68.70
2018-03-03T22:29:59.082Z,69.30
2018-03-03T22:30:59.767Z,64.50
2018-03-03T22:32:00.472Z,73.00
2018-03-03T22:33:01.131Z,83.20
2018-03-03T22:34:01.841Z,85.30
2018-03-03T22:35:02.601Z,100.30
2018-03-03T22:36:03.291Z,76.10
2018-03-03T22:37:03.941Z,89.50
2018-03-03T22:38:04.683Z,103.80
2018-03-03T22:39:05.330Z,84.10
2018-03-03T22:40:06.047Z,106.80
2018-03-03T22:41:06.861Z,105.50
2018-03-03T22:42:07.488Z,80.20
2018-03-03T22:43:08.171Z,98.80
2018-03-03T22:44:08.840Z,103.70
2018-03-03T22:45:09.496Z,96.10
2018-03-03T22:46:10.211Z,106.60
2018-03-03T22:47:10.874Z,108.20
2018-03-03T22:48:11.563Z,103.70
2018-03-03T22:49:12.230Z,104.30
2018-03-03T22:50:12.902Z,107.80
2018-03-03T22:51:13.576Z,111.70
2018-03-03T22:52:14.232Z,121.60
2018-03-03T22:54:15.151Z,104.70
2018-03-03T22:55:15.789Z,109.40
2018-03-03T22:56:16.481Z,115.30
2018-03-03T22:57:17.137Z,122.80
2018-03-03T22:58:17.855Z,116.50
2018-03-03T23:00:18.899Z,106.90
2018-03-03T23:01:19.578Z,126.50
2018-03-03T23:02:20.222Z,127.80
2018-03-03T23:03:20.913Z,98.70
2018-03-03T23:04:21.608Z,121.40
2018-03-03T23:05:22.269Z,119.10
2018-03-03T23:06:22.907Z,116.60
2018-03-03T23:07:23.543Z,126.20
2018-03-03T23:08:24.941Z,130.70
2018-03-03T23:09:25.600Z,120.90
2018-03-03T23:10:26.268Z,117.10
2018-03-03T23:11:26.992Z,117.50
2018-03-03T23:12:27.792Z,125.90
2018-03-03T23:13:28.447Z,123.00
2018-03-03T23:14:29.093Z,115.20
2018-03-03T23:15:29.748Z,102.80
2018-03-03T23:16:30.403Z,102.90
2018-03-03T23:17:31.046Z,116.90
2018-03-03T23:18:31.815Z,129.70
2018-03-03T23:19:32.494Z,128.30
2018-03-03T23:20:33.138Z,124.70
2018-03-03T23:21:33.837Z,110.30